Skip to content
You are here: Gozo Weather
Gozo Weather Station for the very latest live weather conditions from Gozo and Malta
 
 TIME   TEMPERATURE   WINDSPEED   DIRECTION   HUMIDITY   BAROMETER   RAINFALL 
4:05 20.4°C (68.7°F) 0.0 kmh (0.0 mph) NW 60% 1019.0hPa (30.09 inHg) 0.0mm (0.00 in.)
3:05 20.4°C (68.7 °F) 11.1 kmh (6.9 mph) NW 60% 1019.0hPa (30.09 inHg) 0.0mm (0.00 in.)
2:05 20.5°C (68.9 °F) 0.0 kmh (0.0 mph) WNW 59% 1019.0hPa (30.09 inHg) 0.0mm (0.00 in.)
1:05 20.7°C (69.3 °F) 0.0 kmh (0.0 mph) WNW 58% 1019.0hPa (30.09 inHg) 0.0mm (0.00 in.)
12:05 20.7°C (69.3 °F) 11.1 kmh (6.9 mph) WNW 56% 1020.0hPa (30.12 inHg) 0.0mm (0.00 in.)
11:05 20.8°C (69.4 °F) 11.1 kmh (6.9 mph) NW 55% 1020.0hPa (30.12 inHg) 0.0mm (0.00 in.)
10:05 21.0°C (69.8 °F) 1.9 kmh (1.2 mph) NW 54% 1020.0hPa (30.12 inHg) 0.0mm (0.00 in.)
9:05 22.1°C (71.8 °F) 11.1 kmh (6.9 mph) NW 52% 1019.0hPa (30.09 inHg) 0.0mm (0.00 in.)
8:05 22.3°C (72.1 °F) 9.3 kmh (5.8 mph) NNW 51% 1019.0hPa (30.09 inHg) 0.0mm (0.00 in.)
7:05 23.4°C (74.1 °F) 14.8 kmh (9.2 mph) NW 50% 1019.0hPa (30.09 inHg) 0.0mm (0.00 in.)
6:05 23.7°C (74.7 °F) 11.1 kmh (6.9 mph) NW 47% 1018.0hPa (30.06 inHg) 0.0mm (0.00 in.)
5:05 24.0°C (75.2 °F) 11.1 kmh (6.9 mph) N 47% 1018.0hPa (30.06 inHg) 0.0mm (0.00 in.)
4:05 24.1°C (75.4 °F) 11.1 kmh (6.9 mph) NNW 47% 1018.0hPa (30.06 inHg) 0.0mm (0.00 in.)
3:05 24.5°C (76.1 °F) 11.1 kmh (6.9 mph) N 50% 1019.0hPa (30.09 inHg) 0.0mm (0.00 in.)
2:05 24.4°C (75.9 °F) 11.1 kmh (6.9 mph) ENE 50% 1019.0hPa (30.09 inHg) 0.0mm (0.00 in.)
1:05 24.4°C (75.9 °F) 11.1 kmh (6.9 mph) NNW 48% 1020.0hPa (30.12 inHg) 0.0mm (0.00 in.)
12:05 23.9°C (75.0 °F) 14.8 kmh (9.2 mph) NW 49% 1020.0hPa (30.12 inHg) 0.0mm (0.00 in.)
11:05 23.1°C (73.6 °F) 0.0 kmh (0.0 mph) N 54% 1020.0hPa (30.12 inHg) 0.0mm (0.00 in.)
10:05 23.6°C (74.5 °F) 0.0 kmh (0.0 mph) WNW 54% 1020.0hPa (30.12 inHg) 0.0mm (0.00 in.)
9:05 23.2°C (73.8 °F) 0.0 kmh (0.0 mph) NW 57% 1019.0hPa (30.09 inHg) 0.0mm (0.00 in.)
8:05 20.0°C (68.0 °F) 0.0 kmh (0.0 mph) NNE 59% 1019.0hPa (30.09 inHg) 0.0mm (0.00 in.)
7:05 20.0°C (68.0 °F) 0.0 kmh (0.0 mph) NNE 58% 1018.0hPa (30.06 inHg) 0.0mm (0.00 in.)
6:05 20.1°C (68.2 °F) 0.0 kmh (0.0 mph) NNE 56% 1018.0hPa (30.06 inHg) 0.0mm (0.00 in.)
5:05 20.2°C (68.4 °F) 0.0 kmh (0.0 mph) NNE 53% 1018.0hPa (30.06 inHg) 0.0mm (0.00 in.)

You need the latest version of Flash Player to view some of our content.


Why not download and install the latest version now?
It will only take you a moment and will ensure that you can view all the latest flash designed websites.

Translate this page

Animated Satellite

Click per aprire http://www.gozo.ws/Animation.php
copyright 2017 EUMETSAT

European Lightning Activity


Please click image for full size

Sponsored Links